LZB976 LBWN-LBSF

Flight info

Callsign LZB976
Flight time 0h 40m
Altitude 26000
Route T343 DCT UMPIT
Aircraft A320/M-SDE3FGHIRWY/LB1

Departure

Time 2026-05-04 17:40
Airport Varna Airport (LBWN)

Arrival

Time 2026-05-04 18:21
Airport Sofia Airport (LBSF)
Time Latitude Longitude Altitude Speed Heading
2026-05-04 16:58 43.23510 27.82617 222 ft 0 kts
2026-05-04 17:34 43.23558 27.82696 222 ft 10 kts 96°
2026-05-04 17:34 43.23549 27.82811 222 ft 14 kts 95°
2026-05-04 17:35 43.23545 27.83167 222 ft 13 kts 92°
2026-05-04 17:35 43.23487 27.83333 222 ft 9 kts 176°
2026-05-04 17:35 43.23429 27.83328 222 ft 8 kts 185°
2026-05-04 17:36 43.23382 27.83341 222 ft 6 kts 146°
2026-05-04 17:36 43.23365 27.83389 223 ft 5 kts 103°
2026-05-04 17:36 43.23360 27.83446 222 ft 9 kts 97°
2026-05-04 17:36 43.23353 27.83555 222 ft 12 kts 94°
2026-05-04 17:37 43.23347 27.83658 222 ft 10 kts 95°
2026-05-04 17:37 43.23341 27.83747 222 ft 9 kts 95°
2026-05-04 17:37 43.23335 27.83824 222 ft 8 kts 96°
2026-05-04 17:37 43.23329 27.83889 222 ft 6 kts 97°
2026-05-04 17:38 43.23323 27.83946 222 ft 5 kts 100°
2026-05-04 17:38 43.23311 27.83997 222 ft 7 kts 113°
2026-05-04 17:38 43.23271 27.84063 224 ft 11 kts 144°
2026-05-04 17:38 43.23202 27.84093 222 ft 10 kts 175°
2026-05-04 17:39 43.23095 27.84028 222 ft 8 kts 220°
2026-05-04 17:39 43.23068 27.83975 222 ft 6 kts 259°
2026-05-04 17:39 43.23071 27.83928 222 ft 5 kts 275°
2026-05-04 17:40 43.23094 27.83665 221 ft 65 kts 278°
2026-05-04 17:40 43.23181 27.82738 222 ft 129 kts 276°
2026-05-04 17:40 43.23291 27.81343 531 ft 151 kts 276°
2026-05-04 17:40 43.23423 27.79895 1131 ft 159 kts 277°
2026-05-04 17:41 43.23575 27.78290 1480 ft 181 kts 279°
2026-05-04 17:41 43.23740 27.76468 1796 ft 204 kts 278°
2026-05-04 17:41 43.23914 27.74436 2140 ft 224 kts 275°
2026-05-04 17:41 43.23766 27.72180 2537 ft 251 kts 263°
2026-05-04 17:42 43.23494 27.69742 3226 ft 264 kts 263°
2026-05-04 17:42 43.23207 27.67238 4195 ft 268 kts 264°
2026-05-04 17:42 43.22915 27.64704 5150 ft 271 kts 266°
2026-05-04 17:42 43.22621 27.62127 6031 ft 277 kts 266°
2026-05-04 17:43 43.22321 27.59495 6896 ft 282 kts 267°
2026-05-04 17:43 43.22015 27.56812 7725 ft 288 kts 266°
2026-05-04 17:43 43.21705 27.54112 8570 ft 293 kts 266°
2026-05-04 17:43 43.21381 27.51289 9422 ft 299 kts 266°
2026-05-04 17:44 43.21059 27.48491 10207 ft 306 kts 266°
2026-05-04 17:44 43.20719 27.45498 10502 ft 330 kts 265°
2026-05-04 17:44 43.20356 27.42278 10757 ft 353 kts 265°
2026-05-04 17:44 43.19968 27.38882 11248 ft 366 kts 265°
2026-05-04 17:45 43.19563 27.35409 11920 ft 372 kts 264°
2026-05-04 17:45 43.19146 27.31886 12617 ft 377 kts 264°
2026-05-04 17:45 43.18723 27.28323 13325 ft 382 kts 264°
2026-05-04 17:45 43.18295 27.24706 14010 ft 387 kts 264°
2026-05-04 17:46 43.17867 27.21046 14647 ft 391 kts 264°
2026-05-04 17:46 43.17438 27.17356 15304 ft 394 kts 264°
2026-05-04 17:46 43.17003 27.13642 15938 ft 397 kts 264°
2026-05-04 17:46 43.16559 27.09903 16587 ft 400 kts 264°
2026-05-04 17:47 43.16109 27.06130 17212 ft 403 kts 263°
2026-05-04 17:47 43.15655 27.02333 17847 ft 406 kts 263°
2026-05-04 17:47 43.15196 26.98504 18445 ft 409 kts 263°
2026-05-04 17:47 43.14732 26.94646 18973 ft 412 kts 263°
2026-05-04 17:48 43.14265 26.90764 19508 ft 414 kts 263°
2026-05-04 17:48 43.13796 26.86859 20039 ft 417 kts 263°
2026-05-04 17:48 43.13486 26.84263 20392 ft 419 kts 263°
2026-05-04 17:48 43.12854 26.78978 21087 ft 422 kts 263°
2026-05-04 17:49 43.12376 26.75001 21592 ft 424 kts 262°
2026-05-04 17:49 43.11891 26.71006 22082 ft 427 kts 262°
2026-05-04 17:49 43.11398 26.66993 22576 ft 430 kts 262°
2026-05-04 17:49 43.10897 26.62948 23057 ft 432 kts 262°
2026-05-04 17:50 43.10391 26.58881 23528 ft 435 kts 262°
2026-05-04 17:50 43.09884 26.54787 23938 ft 437 kts 262°
2026-05-04 17:50 43.09377 26.50679 24341 ft 439 kts 262°
2026-05-04 17:50 43.08873 26.46605 24728 ft 441 kts 262°
2026-05-04 17:51 43.08358 26.42461 25106 ft 443 kts 262°
2026-05-04 17:51 43.07839 26.38297 25495 ft 445 kts 262°
2026-05-04 17:51 43.07316 26.34120 25889 ft 446 kts 262°
2026-05-04 17:51 43.06791 26.29937 26035 ft 447 kts 262°
2026-05-04 17:52 43.06262 26.25727 26061 ft 451 kts 261°
2026-05-04 17:52 43.05727 26.21493 26065 ft 455 kts 261°
2026-05-04 17:52 43.05180 26.17176 26067 ft 466 kts 261°
2026-05-04 17:52 43.04620 26.12772 26067 ft 475 kts 261°
2026-05-04 17:53 43.04048 26.08277 26053 ft 483 kts 261°
2026-05-04 17:53 43.03471 26.03739 26061 ft 486 kts 261°
2026-05-04 17:53 43.02891 25.99195 26059 ft 487 kts 261°
2026-05-04 17:53 43.02306 25.94636 26059 ft 487 kts 261°
2026-05-04 17:54 43.01716 25.90084 26050 ft 487 kts 261°
2026-05-04 17:54 43.01121 25.85528 26059 ft 487 kts 261°
2026-05-04 17:54 43.00523 25.80970 26060 ft 487 kts 261°
2026-05-04 17:54 42.99926 25.76415 26058 ft 487 kts 261°
2026-05-04 17:55 42.99331 25.71868 26049 ft 487 kts 261°
2026-05-04 17:55 42.98734 25.67311 26049 ft 487 kts 261°
2026-05-04 17:55 42.98136 25.62763 26050 ft 487 kts 261°
2026-05-04 17:55 42.97535 25.58216 26052 ft 487 kts 261°
2026-05-04 17:56 42.96932 25.53673 26040 ft 487 kts 261°
2026-05-04 17:56 42.96334 25.49173 26058 ft 472 kts 261°
2026-05-04 17:56 42.95756 25.44848 26061 ft 457 kts 261°
2026-05-04 17:56 42.95185 25.40597 26068 ft 453 kts 261°
2026-05-04 17:57 42.94618 25.36381 26066 ft 452 kts 261°
2026-05-04 17:57 42.94052 25.32169 26074 ft 451 kts 261°
2026-05-04 17:57 42.93493 25.28016 26072 ft 451 kts 261°
2026-05-04 17:57 42.92925 25.23811 26074 ft 451 kts 261°
2026-05-04 17:58 42.92353 25.19599 26077 ft 451 kts 261°
2026-05-04 17:58 42.91779 25.15396 26080 ft 451 kts 261°
2026-05-04 17:58 42.91205 25.11192 26082 ft 451 kts 261°
2026-05-04 17:58 42.90630 25.06991 26079 ft 450 kts 261°
2026-05-04 17:59 42.90055 25.02793 26075 ft 450 kts 261°
2026-05-04 17:59 42.89480 24.98598 26072 ft 450 kts 261°
2026-05-04 17:59 42.88322 24.90213 26078 ft 450 kts 261°
2026-05-04 18:00 42.87741 24.86026 26062 ft 449 kts 261°
2026-05-04 18:00 42.87160 24.81863 25431 ft 446 kts 261°
2026-05-04 18:00 42.86578 24.77718 24754 ft 444 kts 261°
2026-05-04 18:00 42.86000 24.73600 24112 ft 441 kts 261°
2026-05-04 18:01 42.85422 24.69498 23438 ft 439 kts 261°
2026-05-04 18:01 42.84847 24.65430 22747 ft 436 kts 261°
2026-05-04 18:01 42.84277 24.61391 22108 ft 432 kts 261°
2026-05-04 18:02 42.83147 24.53420 20868 ft 425 kts 261°
2026-05-04 18:02 42.82587 24.49480 20267 ft 422 kts 261°
2026-05-04 18:02 42.82032 24.45569 19674 ft 420 kts 261°
2026-05-04 18:02 42.81477 24.41674 19114 ft 417 kts 261°
2026-05-04 18:03 42.80926 24.37810 18564 ft 414 kts 261°
2026-05-04 18:03 42.80374 24.33968 17957 ft 412 kts 261°
2026-05-04 18:03 42.79823 24.30152 17364 ft 410 kts 261°
2026-05-04 18:03 42.79273 24.26361 16804 ft 407 kts 261°
2026-05-04 18:04 42.78722 24.22590 16265 ft 404 kts 261°
2026-05-04 18:04 42.78175 24.18851 15728 ft 402 kts 261°
2026-05-04 18:04 42.76978 24.11470 14700 ft 397 kts 258°
2026-05-04 18:05 42.76301 24.07840 14215 ft 395 kts 257°
2026-05-04 18:05 42.75608 24.04239 13697 ft 392 kts 257°
2026-05-04 18:05 42.74977 24.00647 13138 ft 388 kts 262°
2026-05-04 18:05 42.74688 23.97021 12633 ft 382 kts 271°
2026-05-04 18:06 42.75007 23.89964 11509 ft 374 kts 278°
2026-05-04 18:06 42.75238 23.86474 10974 ft 369 kts 279°
2026-05-04 18:06 42.75463 23.83001 10401 ft 367 kts 279°
2026-05-04 18:07 42.75681 23.79574 10073 ft 358 kts 279°
2026-05-04 18:07 42.75872 23.76494 9989 ft 341 kts 279°
2026-05-04 18:07 42.76062 23.73363 10010 ft 323 kts 279°
2026-05-04 18:07 42.76243 23.70397 10010 ft 307 kts 279°
2026-05-04 18:08 42.76423 23.67526 10013 ft 303 kts 279°
2026-05-04 18:08 42.76605 23.64676 10011 ft 303 kts 279°
2026-05-04 18:08 42.76784 23.61823 10007 ft 302 kts 279°
2026-05-04 18:08 42.76961 23.58976 10009 ft 302 kts 279°
2026-05-04 18:09 42.77304 23.53325 9324 ft 298 kts 279°
2026-05-04 18:09 42.77637 23.47753 8599 ft 293 kts 278°
2026-05-04 18:10 42.77801 23.45002 8220 ft 291 kts 278°
2026-05-04 18:10 42.77967 23.42275 8001 ft 287 kts 278°
2026-05-04 18:10 42.78127 23.39636 8001 ft 272 kts 278°
2026-05-04 18:10 42.78280 23.37095 8004 ft 268 kts 278°
2026-05-04 18:11 42.78438 23.34528 8016 ft 276 kts 278°
2026-05-04 18:11 42.78598 23.31918 8008 ft 277 kts 278°
2026-05-04 18:11 42.78754 23.29298 8009 ft 278 kts 278°
2026-05-04 18:11 42.78907 23.26682 7979 ft 276 kts 278°
2026-05-04 18:12 42.79055 23.24125 7850 ft 265 kts 278°
2026-05-04 18:12 42.79196 23.21670 7701 ft 256 kts 278°
2026-05-04 18:12 42.79332 23.19276 7435 ft 252 kts 278°
2026-05-04 18:12 42.79466 23.16921 7210 ft 246 kts 277°
2026-05-04 18:13 42.79594 23.14638 7030 ft 239 kts 277°
2026-05-04 18:13 42.79719 23.12397 6771 ft 236 kts 277°
2026-05-04 18:13 42.79971 23.07981 6206 ft 232 kts 277°
2026-05-04 18:14 42.79982 23.05827 6026 ft 232 kts 261°
2026-05-04 18:14 42.79628 23.04421 6006 ft 235 kts 242°
2026-05-04 18:14 42.78056 23.02435 6009 ft 239 kts 202°
2026-05-04 18:15 42.74829 23.02548 6015 ft 230 kts 156°
2026-05-04 18:15 42.72764 23.04569 6010 ft 214 kts 126°
2026-05-04 18:15 42.71986 23.06271 6009 ft 211 kts 109°
2026-05-04 18:16 42.71601 23.08180 6013 ft 208 kts 93°
2026-05-04 18:16 42.71484 23.10141 5957 ft 208 kts 91°
2026-05-04 18:16 42.71374 23.12094 5736 ft 207 kts 91°
2026-05-04 18:17 42.71151 23.16019 5203 ft 210 kts 92°
2026-05-04 18:17 42.71036 23.18011 4928 ft 212 kts 92°
2026-05-04 18:17 42.70806 23.21999 4383 ft 210 kts 93°
2026-05-04 18:18 42.70692 23.23942 4083 ft 200 kts 93°
2026-05-04 18:18 42.70586 23.25772 3819 ft 188 kts 93°
2026-05-04 18:18 42.70485 23.27500 3578 ft 179 kts 94°
2026-05-04 18:18 42.70389 23.29137 3356 ft 168 kts 94°
2026-05-04 18:19 42.70212 23.32155 2895 ft 154 kts 94°
2026-05-04 18:19 42.70127 23.33599 2684 ft 152 kts 95°
2026-05-04 18:19 42.70043 23.35023 2486 ft 151 kts 95°
2026-05-04 18:20 42.69958 23.36452 2294 ft 152 kts 95°
2026-05-04 18:20 42.69873 23.37882 2095 ft 152 kts 95°
2026-05-04 18:20 42.69787 23.39322 1882 ft 153 kts 95°
2026-05-04 18:20 42.69714 23.40726 1759 ft 140 kts 97°
2026-05-04 18:21 42.69638 23.41875 1754 ft 98 kts 94°
2026-05-04 18:21 42.69600 23.42466 1748 ft 28 kts 104°
2026-05-04 18:21 42.69544 23.42635 1746 ft 15 kts 119°
2026-05-04 18:21 42.69489 23.42740 1744 ft 12 kts 135°
2026-05-04 18:22 42.69420 23.42757 1751 ft 10 kts 203°
2026-05-04 18:22 42.69403 23.42682 1753 ft 8 kts 274°
2026-05-04 18:22 42.69407 23.42609 1745 ft 7 kts 273°
2026-05-04 18:22 42.69411 23.42521 1753 ft 12 kts 275°
2026-05-04 18:23 42.69419 23.42392 1753 ft 16 kts 275°
2026-05-04 18:23 42.69428 23.42234 1753 ft 18 kts 274°
2026-05-04 18:23 42.69439 23.42060 1751 ft 20 kts 275°
2026-05-04 18:23 42.69450 23.41867 1748 ft 21 kts 275°
2026-05-04 18:24 42.69463 23.41658 1753 ft 23 kts 275°
2026-05-04 18:24 42.69474 23.41447 1753 ft 19 kts 275°
2026-05-04 18:24 42.69484 23.41302 1750 ft 13 kts 275°
2026-05-04 18:24 42.69436 23.41209 1753 ft 15 kts 194°
2026-05-04 18:25 42.69331 23.41180 1753 ft 16 kts 191°
2026-05-04 18:25 42.69225 23.41155 1744 ft 13 kts 186°
2026-05-04 18:25 42.69143 23.41185 1753 ft 12 kts 160°
2026-05-04 18:25 42.69071 23.41219 1747 ft 8 kts 163°
2026-05-04 18:26 42.69061 23.41267 1753 ft 5 kts 78°
2026-05-04 18:26 42.69070 23.41305 1751 ft 2 kts 72°
2026-05-04 18:26 42.69070 23.41306 1751 ft 0 kts 72°